Terminal Aerodrome Forecast
Issued by NWS Cleveland, OH

Home | Current Version | Previous Version | Graphics & Text | Print | Product List | Glossary On
Versions: 1 2 3 4 5 6 7 8 9 10 11 12 13 14
075
FTUS41 KCLE 201737
TAFCAK
TAF
KCAK 201737Z 2018/2118 20004KT P6SM SCT045
     FM210600 VRB03KT P6SM FEW250
     FM211400 22005KT P6SM SCT045=

USA.gov is the U.S. government's official web portal to all federal, state and local government web resources and services.